الصفحة الرئيسية
METAR-TAF:

METAR-TAF

مطار :

مطار الجوف المحلي

سكاكا, السعودية

دائرة عرض: 29-47N, خط طول: 040-06E, ارتفاع: 689 متر

مراقبة الطقس الحالي

تاريخ ووقت الإصدار 24 دقيقة قبل الساعة 12:00UTC
ريح 14 عقدة من الغرب/الشمال الغربي
درجة الحرارة 36°درجة مئوية
الرطوبة 11%
ضغط 1016 hPa
الرؤية 10 كم أو أكثر
الغيوم لا تقل 1500 م ولا وجود لمزنة ركامية السحاب الأسود

METAR: OESK 211200Z 29014KT CAVOK 36/01 Q1016

زمن: 15:24 (12:24 UTC)

توقعات

تاريخ ووقت الإصدار 1ساعة و 24 دقيقة قبل الساعة 11:00UTC
التوقعات صالحة من21 الساعة 12 UTC إلى 22 الساعة 18 UTC
ريح 12 عقدة من الشمال/الشمال الغربي
الرؤية: 7000 متر
سماء صافية

TAF: OESK 211100Z 2112/2218 34012KT 7000 SKC

أرصاد الطقس والتوقعات من أكثر من 4000 مطار (تقارير الطقس للمطار METAR والتنبؤ بالطقس بالمطارTAF).

المحطات المتاحة هي النقط الصفراء والحمراء على الخريطة.

حرك المؤشر فوق النقطة لمعرفة اسم المحطة.

ثم انقر لمعرفة أرصاد وتوقعات الطقس.

لتغيير الخارطة: اضغط على الأزرار الخضراء مع رمز الصليب الأسود للتكبير. على الزر الأخضر مع شرطة للتصغير، أو على الأسهم الخضراء للخرائط المجاورة.


METAR-TAF: